Time;durP1;ratioP1;P1;durP2;ratioP2;P2;SDS_P1;SDS_P2;PMS_P1;PMS_P2;Temp;Humidity;BMP_temperature;BMP_pressure;BME280_temperature;BME280_humidity;BME280_pressure;Samples;Min_cycle;Max_cycle;Signal;HPM_P1;HPM_P2
2023/03/09 00:00:20;;;;;;;28.77;23.43;;;;;;;0.28;100.00;98962.56;5273143;28;20067;-73
2023/03/09 00:02:51;;;;;;;25.13;22.07;;;;;;;0.23;100.00;98949.91;5273074;28;20059;-72
2023/03/09 00:05:22;;;;;;;25.63;21.50;;;;;;;0.24;100.00;98951.56;5275271;28;20495;-72
2023/03/09 00:07:55;;;;;;;25.93;21.90;;;;;;;0.15;100.00;98936.56;5272450;28;20025;-72
2023/03/09 00:10:26;;;;;;;28.03;23.73;;;;;;;0.12;100.00;98929.00;5256556;28;20170;-70
2023/03/09 00:12:58;;;;;;;27.50;23.63;;;;;;;0.20;100.00;98933.75;5272189;28;20037;-73
2023/03/09 00:15:30;;;;;;;27.00;22.00;;;;;;;0.00;100.00;98925.25;5275630;28;20036;-71
2023/03/09 00:18:02;;;;;;;26.83;22.07;;;;;;;0.05;100.00;98914.75;5269139;28;20111;-72
2023/03/09 00:20:33;;;;;;;30.93;23.80;;;;;;;-0.03;100.00;98897.91;5272795;28;20052;-72
2023/03/09 00:23:08;;;;;;;29.17;23.83;;;;;;;0.21;100.00;98946.56;5276180;28;20040;-72
2023/03/09 00:25:39;;;;;;;29.10;23.37;;;;;;;0.18;100.00;98962.16;5275509;28;20068;-72
2023/03/09 00:28:11;;;;;;;31.33;25.00;;;;;;;0.36;100.00;98975.06;5276408;28;20036;-72
2023/03/09 00:30:42;;;;;;;27.00;23.00;;;;;;;0.18;100.00;98977.59;5276773;28;20067;-72
2023/03/09 00:33:13;;;;;;;29.00;23.60;;;;;;;0.19;100.00;98979.25;5275938;28;20050;-72
2023/03/09 00:35:45;;;;;;;28.67;22.80;;;;;;;0.07;100.00;98983.25;5258385;28;20031;-73
2023/03/09 00:38:16;;;;;;;28.93;23.67;;;;;;;0.22;100.00;98997.16;5276101;28;20032;-73
2023/03/09 00:40:48;;;;;;;31.60;25.43;;;;;;;0.33;100.00;98980.38;5257262;28;20043;-72
2023/03/09 00:43:19;;;;;;;32.17;26.33;;;;;;;0.46;100.00;98989.19;5267039;28;20056;-72
2023/03/09 00:45:50;;;;;;;31.70;25.13;;;;;;;0.17;100.00;98990.56;5255230;28;20506;-72
2023/03/09 00:48:22;;;;;;;29.80;25.40;;;;;;;0.32;100.00;99004.44;5255120;28;20103;-72
2023/03/09 00:50:53;;;;;;;31.20;25.50;;;;;;;0.20;100.00;98993.81;5253811;28;20025;-71
2023/03/09 00:53:24;;;;;;;31.60;25.43;;;;;;;0.40;100.00;99012.63;5236665;28;20526;-71
2023/03/09 00:55:56;;;;;;;31.43;24.73;;;;;;;0.26;100.00;99004.75;5260419;28;20025;-71
2023/03/09 00:58:27;;;;;;;30.30;24.37;;;;;;;0.26;100.00;99008.16;5275421;28;20028;-71
2023/03/09 01:00:58;;;;;;;29.93;24.73;;;;;;;0.24;100.00;99028.81;5275290;28;20107;-72
2023/03/09 01:03:30;;;;;;;32.17;26.87;;;;;;;0.31;100.00;99026.81;5275154;28;20024;-71
2023/03/09 01:06:01;;;;;;;32.53;24.87;;;;;;;0.36;100.00;99031.75;5275467;28;20535;-72
2023/03/09 01:08:33;;;;;;;29.87;24.37;;;;;;;0.42;100.00;99034.00;5275521;28;20391;-72
2023/03/09 01:11:06;;;;;;;30.83;25.13;;;;;;;0.42;100.00;99051.22;5256373;28;20032;-72
2023/03/09 01:13:38;;;;;;;29.83;24.30;;;;;;;0.43;100.00;99071.75;5257873;28;20425;-72
2023/03/09 01:16:09;;;;;;;29.57;24.10;;;;;;;0.65;100.00;99088.78;5237237;28;1074774;-72
2023/03/09 01:18:41;;;;;;;29.33;24.70;;;;;;;0.72;100.00;99090.16;5276779;28;20058;-74
2023/03/09 01:21:12;;;;;;;28.00;22.77;;;;;;;0.51;100.00;99068.00;5276350;28;20035;-73
2023/03/09 01:23:43;;;;;;;28.17;22.87;;;;;;;0.40;100.00;99069.31;5258599;28;20032;-72
2023/03/09 01:26:15;;;;;;;27.20;21.83;;;;;;;0.54;100.00;99076.38;5275035;28;20353;-73
2023/03/09 01:28:47;;;;;;;27.77;22.30;;;;;;;0.44;100.00;99081.16;5275656;28;20515;-74
2023/03/09 01:31:18;;;;;;;25.03;21.27;;;;;;;0.57;100.00;99078.00;5276308;28;20475;-74
2023/03/09 01:33:51;;;;;;;26.10;22.10;;;;;;;0.53;100.00;99089.34;5275587;28;20031;-73
2023/03/09 01:36:22;;;;;;;29.17;23.90;;;;;;;0.72;100.00;99110.78;5276194;28;20033;-74
2023/03/09 01:38:54;;;;;;;30.27;24.80;;;;;;;0.82;100.00;99107.78;5276145;28;20312;-72
2023/03/09 01:41:25;;;;;;;28.13;22.53;;;;;;;0.62;100.00;99104.38;5257077;28;20796;-72
2023/03/09 01:43:56;;;;;;;27.30;23.27;;;;;;;0.67;100.00;99104.16;5258015;28;20472;-74
2023/03/09 01:46:30;;;;;;;27.07;21.63;;;;;;;0.59;100.00;99101.97;5257294;28;20063;-71
2023/03/09 01:49:24;;;;;;;28.10;23.47;;;;;;;0.77;100.00;99099.44;5274638;28;20040;-71
2023/03/09 01:52:20;;;;;;;27.17;22.53;;;;;;;0.72;100.00;99100.47;5257352;28;20035;-72
2023/03/09 01:55:05;;;;;;;26.37;22.23;;;;;;;0.65;100.00;99114.53;5273980;28;20060;-73
2023/03/09 01:57:51;;;;;;;27.95;24.35;;;;;;;0.72;100.00;99113.34;5257902;28;20115;-73
2023/03/09 02:00:24;;;;;;;28.40;22.93;;;;;;;0.62;100.00;99127.59;5257559;28;20029;-73
2023/03/09 02:03:02;;;;;;;28.87;22.47;;;;;;;0.82;100.00;99129.22;5275179;28;20043;-73
2023/03/09 02:05:56;;;;;;;28.03;22.00;;;;;;;0.61;100.00;99128.50;5261309;28;20471;-72
2023/03/09 02:08:30;;;;;;;27.90;23.30;;;;;;;0.67;100.00;99140.25;5279552;28;20032;-71
2023/03/09 02:11:09;;;;;;;29.00;22.77;;;;;;;0.83;100.00;99148.09;5260768;28;20507;-71
2023/03/09 02:13:48;;;;;;;30.47;24.43;;;;;;;0.76;100.00;99146.72;5279409;28;20024;-72
2023/03/09 02:16:20;;;;;;;29.23;24.13;;;;;;;0.70;100.00;99138.34;5278984;28;20058;-72
2023/03/09 02:18:51;;;;;;;27.27;22.67;;;;;;;0.61;100.00;99141.38;5261347;28;20028;-72
2023/03/09 02:21:50;;;;;;;26.47;22.63;;;;;;;0.72;100.00;99126.25;5280055;28;20067;-72
2023/03/09 02:24:27;;;;;;;30.83;23.73;;;;;;;0.76;100.00;99138.97;5279555;28;20107;-72
2023/03/09 02:27:02;;;;;;;29.93;23.63;;;;;;;0.68;100.00;99135.00;5278261;28;20036;-72
2023/03/09 02:29:34;;;;;;;30.83;24.87;;;;;;;0.75;100.00;99125.25;5279367;28;20380;-71
2023/03/09 02:32:06;;;;;;;32.67;24.80;;;;;;;0.78;100.00;99119.97;5278659;28;20538;-71
2023/03/09 02:34:37;;;;;;;31.17;24.10;;;;;;;0.93;100.00;99138.19;5244758;28;20124;-72
2023/03/09 02:37:32;;;;;;;32.03;25.07;;;;;;;1.01;100.00;99158.47;5261248;28;20652;-73
2023/03/09 02:40:16;;;;;;;32.28;26.38;;;;;;;1.06;100.00;99171.97;5277742;28;20032;-72
2023/03/09 02:42:50;;;;;;;31.70;25.20;;;;;;;0.92;100.00;99146.84;5266640;28;20032;-72
2023/03/09 02:45:21;;;;;;;33.42;26.23;;;;;;;0.95;100.00;99167.31;5257989;28;20021;-73
2023/03/09 02:47:54;;;;;;;34.10;26.03;;;;;;;1.06;100.00;99166.81;5278483;28;20035;-72
2023/03/09 02:50:26;;;;;;;35.93;27.43;;;;;;;1.04;100.00;99160.88;5278649;28;20111;-72
2023/03/09 02:52:58;;;;;;;31.10;25.67;;;;;;;1.07;100.00;99158.16;5278142;28;20025;-74
2023/03/09 02:55:29;;;;;;;34.63;27.10;;;;;;;1.08;100.00;99162.44;5277744;28;20044;-71
2023/03/09 02:58:01;;;;;;;35.47;27.93;;;;;;;1.02;100.00;99157.53;5278333;28;20056;-72
2023/03/09 03:00:32;;;;;;;33.43;25.77;;;;;;;1.02;100.00;99160.13;5260518;28;20132;-71
2023/03/09 03:03:04;;;;;;;31.00;25.57;;;;;;;0.79;100.00;99144.84;5278189;28;20076;-73
2023/03/09 03:05:35;;;;;;;32.70;26.00;;;;;;;0.91;100.00;99152.91;5278651;28;20028;-71
2023/03/09 03:08:06;;;;;;;34.37;27.47;;;;;;;0.91;100.00;99165.81;5278064;28;20025;-71
2023/03/09 03:10:37;;;;;;;34.53;27.17;;;;;;;0.71;100.00;99160.66;5277725;28;20090;-71
2023/03/09 03:13:09;;;;;;;35.77;27.73;;;;;;;0.92;100.00;99165.72;5278286;28;20055;-71
2023/03/09 03:15:40;;;;;;;34.73;26.87;;;;;;;0.77;100.00;99161.28;5277415;28;20086;-71
2023/03/09 03:18:11;;;;;;;36.63;27.57;;;;;;;0.94;100.00;99161.31;5277862;28;20128;-71
2023/03/09 03:20:43;;;;;;;32.50;26.40;;;;;;;0.87;100.00;99165.09;5277929;28;20050;-71
2023/03/09 03:23:14;;;;;;;35.80;27.23;;;;;;;0.93;100.00;99169.13;5278326;28;20036;-71
2023/03/09 03:25:45;;;;;;;31.80;25.60;;;;;;;0.89;100.00;99165.84;5258692;28;20035;-73
2023/03/09 03:28:17;;;;;;;32.83;27.00;;;;;;;1.02;100.00;99183.31;5259730;28;20596;-72
2023/03/09 03:30:52;;;;;;;35.87;27.63;;;;;;;1.01;100.00;99179.09;5277688;28;20055;-71
2023/03/09 03:33:23;;;;;;;34.57;26.40;;;;;;;0.85;100.00;99184.97;5277563;28;20108;-72
2023/03/09 03:35:55;;;;;;;33.50;26.63;;;;;;;1.01;100.00;99207.44;5278470;28;20127;-72
2023/03/09 03:38:26;;;;;;;37.03;27.83;;;;;;;1.05;100.00;99227.84;5277028;28;20098;-72
2023/03/09 03:40:57;;;;;;;34.30;26.50;;;;;;;1.08;100.00;99235.44;5276534;28;20029;-73
2023/03/09 03:43:29;;;;;;;35.03;28.10;;;;;;;1.14;100.00;99243.78;5278240;28;20552;-71
2023/03/09 03:46:00;;;;;;;35.17;28.10;;;;;;;0.91;100.00;99243.13;5277344;28;20035;-72
2023/03/09 03:48:31;;;;;;;36.83;28.50;;;;;;;0.91;100.00;99243.94;5259882;28;20021;-72
2023/03/09 03:51:05;;;;;;;36.47;27.23;;;;;;;0.98;100.00;99243.69;5276886;28;20429;-72
2023/03/09 03:53:36;;;;;;;41.40;29.13;;;;;;;1.04;100.00;99251.13;5277448;28;20029;-72
2023/03/09 03:56:08;;;;;;;38.33;28.93;;;;;;;0.83;100.00;99230.59;5272093;28;20518;-72
2023/03/09 03:58:39;;;;;;;39.70;30.70;;;;;;;0.90;100.00;99242.28;5256085;28;20047;-72
2023/03/09 04:01:10;;;;;;;43.83;32.30;;;;;;;1.06;100.00;99250.16;5268549;28;20036;-72
2023/03/09 04:03:42;;;;;;;39.30;30.57;;;;;;;1.13;100.00;99248.13;5276622;28;20569;-72
2023/03/09 04:06:13;;;;;;;41.27;30.57;;;;;;;1.04;100.00;99244.25;5277362;28;20036;-72
2023/03/09 04:08:44;;;;;;;40.63;29.53;;;;;;;1.02;100.00;99246.03;5277359;28;20028;-72
2023/03/09 04:11:16;;;;;;;41.87;32.13;;;;;;;0.82;100.00;99245.19;5275976;28;20032;-73
2023/03/09 04:13:48;;;;;;;42.90;29.50;;;;;;;0.82;100.00;99252.13;5277267;28;20510;-72
2023/03/09 04:16:20;;;;;;;40.73;29.87;;;;;;;0.75;100.00;99248.13;5276457;28;20514;-71
2023/03/09 04:18:51;;;;;;;46.30;33.90;;;;;;;1.00;100.00;99260.75;5277463;28;20036;-72
2023/03/09 04:21:22;;;;;;;42.17;31.63;;;;;;;0.87;100.00;99263.06;5258361;28;20111;-72
2023/03/09 04:23:53;;;;;;;45.20;32.20;;;;;;;0.97;100.00;99271.22;5277527;28;20036;-72
2023/03/09 04:26:25;;;;;;;45.00;33.73;;;;;;;0.86;100.00;99260.53;5275167;28;20112;-72
2023/03/09 04:28:56;;;;;;;44.07;33.57;;;;;;;0.85;100.00;99254.56;5275892;28;20024;-73
2023/03/09 04:31:27;;;;;;;47.13;32.90;;;;;;;0.90;100.00;99264.66;5258866;28;20105;-72
2023/03/09 04:33:59;;;;;;;45.93;33.17;;;;;;;0.81;100.00;99279.63;5276616;28;20565;-72
2023/03/09 04:36:30;;;;;;;45.57;32.53;;;;;;;0.79;100.00;99286.59;5259012;28;20028;-72
2023/03/09 04:39:04;;;;;;;44.53;34.37;;;;;;;0.81;100.00;99294.25;5275911;28;20029;-72
2023/03/09 04:41:35;;;;;;;45.63;34.10;;;;;;;0.58;100.00;99273.75;5275833;28;20033;-72
2023/03/09 04:44:07;;;;;;;46.97;32.43;;;;;;;0.78;100.00;99284.94;5275473;28;20305;-72
2023/03/09 04:46:38;;;;;;;50.13;34.67;;;;;;;0.94;100.00;99297.13;5276083;28;20040;-72
2023/03/09 04:49:09;;;;;;;49.47;36.47;;;;;;;1.02;100.00;99304.50;5276100;28;20107;-72
2023/03/09 04:51:41;;;;;;;52.23;35.03;;;;;;;0.84;100.00;99301.84;5276061;28;20074;-72
2023/03/09 04:54:12;;;;;;;47.57;34.67;;;;;;;0.87;100.00;99309.47;5275695;28;20639;-72
2023/03/09 04:56:43;;;;;;;54.23;37.63;;;;;;;0.94;100.00;99305.69;5274622;28;20530;-72
2023/03/09 04:59:14;;;;;;;52.10;36.83;;;;;;;0.86;100.00;99317.22;5275735;28;20047;-72
2023/03/09 05:01:46;;;;;;;54.20;37.40;;;;;;;1.03;100.00;99312.16;5258045;28;20037;-73
2023/03/09 05:04:17;;;;;;;48.43;35.83;;;;;;;0.93;100.00;99324.66;5275701;28;20086;-73
2023/03/09 05:06:49;;;;;;;50.63;37.40;;;;;;;0.99;100.00;99322.69;5288724;28;20035;-73
2023/03/09 05:09:20;;;;;;;57.03;37.30;;;;;;;0.72;100.00;99332.41;5261493;28;20029;-72
2023/03/09 05:11:51;;;;;;;53.43;37.53;;;;;;;0.57;100.00;99312.47;5274593;28;20035;-72
2023/03/09 05:14:23;;;;;;;54.57;36.47;;;;;;;0.82;100.00;99334.59;5276039;28;20028;-72
2023/03/09 05:16:54;;;;;;;58.87;40.60;;;;;;;0.93;100.00;99342.69;5275581;28;20072;-72
2023/03/09 05:19:26;;;;;;;59.30;40.40;;;;;;;0.93;100.00;99368.47;5275605;28;20032;-72
2023/03/09 05:21:57;;;;;;;57.23;38.90;;;;;;;0.71;100.00;99359.09;5275715;28;20137;-73
2023/03/09 05:24:29;;;;;;;65.87;38.93;;;;;;;0.88;100.00;99373.00;5275164;28;20024;-72
2023/03/09 05:27:00;;;;;;;61.30;40.87;;;;;;;0.71;100.00;99371.13;5257330;28;20052;-72
2023/03/09 05:29:31;;;;;;;56.70;38.80;;;;;;;0.61;100.00;99365.53;5257771;28;20040;-72
2023/03/09 05:32:03;;;;;;;64.77;42.03;;;;;;;0.58;100.00;99355.34;5275409;28;20039;-72
2023/03/09 05:34:35;;;;;;;57.43;39.90;;;;;;;0.52;100.00;99371.91;5257107;28;20545;-72
2023/03/09 05:37:06;;;;;;;63.83;41.07;;;;;;;0.61;100.00;99362.97;5275031;28;20036;-72
2023/03/09 05:39:37;;;;;;;61.17;42.43;;;;;;;0.60;100.00;99369.84;5274380;28;20111;-72
2023/03/09 05:42:08;;;;;;;67.53;43.77;;;;;;;0.69;100.00;99368.63;5275703;28;20017;-72
2023/03/09 05:44:40;;;;;;;67.80;44.33;;;;;;;0.61;100.00;99360.41;5275925;28;20036;-72
2023/03/09 05:47:11;;;;;;;61.23;42.47;;;;;;;0.56;100.00;99357.19;5275230;28;20390;-73
2023/03/09 05:49:42;;;;;;;66.73;43.50;;;;;;;0.66;100.00;99357.63;5257990;28;20086;-72
2023/03/09 05:52:14;;;;;;;68.57;44.07;;;;;;;0.54;100.00;99359.78;5274961;28;20028;-72
2023/03/09 05:54:45;;;;;;;74.83;45.43;;;;;;;0.45;100.00;99355.88;5273654;28;20029;-73
2023/03/09 05:57:16;;;;;;;67.17;45.33;;;;;;;0.72;100.00;99373.66;5275544;28;20024;-73
2023/03/09 05:59:48;;;;;;;73.10;46.57;;;;;;;0.60;100.00;99384.47;5275381;28;20033;-71
2023/03/09 06:02:19;;;;;;;67.60;44.77;;;;;;;0.46;100.00;99380.72;5274920;28;20033;-72
2023/03/09 06:04:51;;;;;;;63.37;42.67;;;;;;;0.44;100.00;99377.38;5274877;28;20052;-72
2023/03/09 06:07:23;;;;;;;65.47;42.03;;;;;;;0.49;100.00;99359.16;5275121;28;20041;-72
2023/03/09 06:09:54;;;;;;;65.07;43.10;;;;;;;0.71;100.00;99377.13;5274226;28;20064;-73
2023/03/09 06:12:27;;;;;;;61.33;44.87;;;;;;;0.67;100.00;99398.78;5257219;28;20394;-72
2023/03/09 06:14:58;;;;;;;68.37;45.27;;;;;;;0.69;100.00;99386.66;5257153;28;20020;-73
2023/03/09 06:17:29;;;;;;;63.37;44.30;;;;;;;0.49;100.00;99379.75;5256882;28;20074;-72
2023/03/09 06:20:02;;;;;;;64.23;42.87;;;;;;;0.53;100.00;99399.34;5275170;28;20036;-72
2023/03/09 06:22:33;;;;;;;67.23;44.33;;;;;;;0.74;100.00;99416.53;5274442;28;20036;-72
2023/03/09 06:25:05;;;;;;;62.87;41.47;;;;;;;0.79;100.00;99409.47;5255127;28;20466;-73
2023/03/09 06:27:37;;;;;;;67.63;43.10;;;;;;;0.58;100.00;99412.03;5268715;28;20044;-73
2023/03/09 06:30:09;;;;;;;68.17;42.90;;;;;;;0.61;100.00;99414.50;5267245;28;20037;-73
2023/03/09 06:32:40;;;;;;;69.47;44.73;;;;;;;0.85;100.00;99416.94;5257036;28;20507;-73
2023/03/09 06:35:12;;;;;;;70.93;44.17;;;;;;;0.80;100.00;99416.31;5256190;28;20031;-73
2023/03/09 06:37:43;;;;;;;70.20;45.77;;;;;;;0.83;100.00;99416.16;5274667;28;20047;-72
2023/03/09 06:40:15;;;;;;;72.40;46.70;;;;;;;0.68;100.00;99428.78;5272987;28;20025;-73
2023/03/09 06:42:46;;;;;;;67.10;44.20;;;;;;;0.97;100.00;99443.94;5278073;28;20029;-73
2023/03/09 06:45:20;;;;;;;72.37;47.03;;;;;;;0.91;100.00;99432.13;5256809;28;20036;-73
2023/03/09 06:47:56;;;;;;;69.82;45.60;;;;;;;0.99;100.00;99438.72;5274686;28;20483;-73
2023/03/09 06:50:28;;;;;;;68.40;45.67;;;;;;;1.11;100.00;99451.09;5275994;28;20031;-73
2023/03/09 06:52:59;;;;;;;66.37;44.90;;;;;;;1.06;100.00;99442.72;5279566;28;20032;-73
2023/03/09 06:55:31;;;;;;;60.90;42.67;;;;;;;1.08;100.00;99467.50;5278442;28;20060;-73
2023/03/09 06:58:02;;;;;;;62.07;43.33;;;;;;;1.15;100.00;99468.09;5278000;28;20379;-73
2023/03/09 07:00:40;;;;;;;65.50;45.23;;;;;;;1.14;100.00;99476.75;5260702;28;20028;-73
2023/03/09 07:03:17;;;;;;;62.93;42.07;;;;;;;1.05;100.00;99477.97;5273490;28;20036;-73
2023/03/09 07:05:49;;;;;;;63.77;44.20;;;;;;;1.20;100.00;99481.63;5277171;28;20032;-73
2023/03/09 07:08:20;;;;;;;66.37;44.47;;;;;;;1.27;100.00;99497.69;5276911;28;20454;-73
2023/03/09 07:10:51;;;;;;;64.83;42.90;;;;;;;1.31;100.00;99501.81;5276888;28;20478;-71
2023/03/09 07:13:23;;;;;;;68.63;43.17;;;;;;;1.37;100.00;99507.59;5259968;28;20029;-71
2023/03/09 07:15:54;;;;;;;64.90;44.93;;;;;;;1.38;100.00;99509.31;5277136;28;20062;-71
2023/03/09 07:18:25;;;;;;;62.33;44.00;;;;;;;1.41;100.00;99522.06;5277594;28;20072;-71
2023/03/09 07:21:01;;;;;;;61.23;42.47;;;;;;;1.45;100.00;99533.91;5277253;28;20021;-72
2023/03/09 07:23:32;;;;;;;67.57;46.17;;;;;;;1.38;100.00;99543.66;5258631;28;20024;-71
2023/03/09 07:26:04;;;;;;;59.80;41.10;;;;;;;1.13;100.00;99525.81;5275975;28;20047;-71
2023/03/09 07:28:36;;;;;;;61.07;41.17;;;;;;;1.03;100.00;99530.53;5277031;28;20072;-71
2023/03/09 07:31:12;;;;;;;60.17;41.37;;;;;;;1.23;100.00;99532.25;5276956;28;20028;-71
2023/03/09 07:33:43;;;;;;;62.87;42.20;;;;;;;1.27;100.00;99544.13;5277023;28;20017;-71
2023/03/09 07:36:14;;;;;;;61.50;42.73;;;;;;;1.32;100.00;99547.34;5277172;28;20032;-71
2023/03/09 07:38:47;;;;;;;62.97;41.73;;;;;;;1.22;100.00;99540.06;5218844;28;20040;-72
2023/03/09 07:41:18;;;;;;;66.43;43.63;;;;;;;1.35;100.00;99569.59;5257984;28;20474;-71
2023/03/09 07:43:50;;;;;;;64.33;41.43;;;;;;;1.44;100.00;99571.81;5255929;28;20029;-71
2023/03/09 07:46:21;;;;;;;59.50;40.33;;;;;;;1.30;100.00;99572.38;5260422;28;20067;-71
2023/03/09 07:48:52;;;;;;;63.97;42.50;;;;;;;1.45;100.00;99575.19;5263027;28;20033;-72
2023/03/09 07:51:24;;;;;;;62.03;42.17;;;;;;;1.24;100.00;99570.03;5264078;28;20059;-71
2023/03/09 07:53:55;;;;;;;65.80;42.33;;;;;;;1.07;100.00;99581.03;5257865;28;20037;-71
2023/03/09 07:56:27;;;;;;;64.70;42.77;;;;;;;1.07;100.00;99579.31;5255734;28;20072;-71
2023/03/09 07:58:59;;;;;;;60.20;41.43;;;;;;;1.07;100.00;99584.47;5266619;28;20115;-71
2023/03/09 08:01:30;;;;;;;65.30;43.17;;;;;;;0.93;100.00;99582.44;5260757;28;20043;-71
2023/03/09 08:04:01;;;;;;;60.43;40.27;;;;;;;1.11;100.00;99580.03;5257352;28;20036;-72
2023/03/09 08:06:33;;;;;;;60.47;41.17;;;;;;;1.01;100.00;99579.59;5245784;28;20052;-73
2023/03/09 08:09:06;;;;;;;63.67;42.10;;;;;;;0.93;100.00;99585.03;5244552;28;20428;-73
2023/03/09 08:11:38;;;;;;;68.63;44.67;;;;;;;1.03;100.00;99598.38;5266036;28;20021;-72
2023/03/09 08:14:10;;;;;;;64.93;42.27;;;;;;;1.05;100.00;99598.31;5264957;28;20033;-72
2023/03/09 08:16:42;;;;;;;69.30;40.67;;;;;;;0.96;100.00;99602.94;5261681;28;20048;-73
2023/03/09 08:19:19;;;;;;;59.00;40.13;;;;;;;0.95;100.00;99614.19;5251539;28;20387;-71
2023/03/09 08:21:51;;;;;;;63.60;41.17;;;;;;;1.19;100.00;99619.25;5265018;28;20533;-71
2023/03/09 08:24:22;;;;;;;66.57;43.10;;;;;;;1.01;100.00;99618.25;5244145;28;20032;-71
2023/03/09 08:26:54;;;;;;;67.90;41.43;;;;;;;1.18;100.00;99617.56;5252749;28;20033;-71
2023/03/09 08:29:25;;;;;;;62.43;40.53;;;;;;;1.19;100.00;99608.91;5257811;28;20059;-71
2023/03/09 08:31:56;;;;;;;65.37;41.03;;;;;;;1.21;100.00;99603.69;5238333;28;20056;-73
2023/03/09 08:34:27;;;;;;;67.37;41.73;;;;;;;1.37;100.00;99621.97;5268416;28;20074;-70
2023/03/09 08:36:59;;;;;;;70.63;43.67;;;;;;;1.53;100.00;99637.66;5264231;28;20033;-70
2023/03/09 08:39:31;;;;;;;63.80;42.17;;;;;;;1.36;100.00;99634.94;5258357;28;20319;-71
2023/03/09 08:42:03;;;;;;;61.87;41.17;;;;;;;1.30;100.00;99638.59;5264390;28;20037;-71
2023/03/09 08:44:34;;;;;;;58.93;40.03;;;;;;;1.36;100.00;99650.41;5257554;28;20020;-71
2023/03/09 08:47:05;;;;;;;64.03;40.00;;;;;;;1.32;100.00;99644.53;5261434;28;20037;-71
2023/03/09 08:49:40;;;;;;;60.63;38.13;;;;;;;1.24;100.00;99625.97;5257986;28;20052;-71
2023/03/09 08:52:12;;;;;;;;;;;;;;;1.52;100.00;99640.31;5271455;28;20551;-70
2023/03/09 08:54:44;;;;;;;64.37;40.27;;;;;;;1.51;100.00;99657.53;5256141;28;20786;-70
2023/03/09 08:57:16;;;;;;;64.53;40.37;;;;;;;1.51;100.00;99667.84;5272961;28;20036;-71
2023/03/09 08:59:47;;;;;;;62.40;41.57;;;;;;;1.33;100.00;99672.00;5274178;28;20058;-72
2023/03/09 09:02:19;;;;;;;66.53;42.80;;;;;;;1.42;100.00;99676.81;5272657;28;20032;-71
2023/03/09 09:04:50;;;;;;;61.57;39.23;;;;;;;1.18;100.00;99670.88;5274171;28;20032;-71
2023/03/09 09:07:22;;;;;;;64.83;41.40;;;;;;;1.09;100.00;99674.66;5256191;28;20356;-71
2023/03/09 09:09:53;;;;;;;65.17;42.70;;;;;;;1.26;100.00;99666.25;5254994;28;20540;-71
2023/03/09 09:12:32;;;;;;;62.97;39.93;;;;;;;1.36;100.00;99682.22;5274100;28;20034;-72
2023/03/09 09:15:07;;;;;;;60.70;39.93;;;;;;;1.58;100.00;99696.81;5273993;28;20120;-71
2023/03/09 09:17:38;;;;;;;61.07;40.17;;;;;;;1.68;100.00;99700.72;5272902;28;20052;-72
2023/03/09 09:20:10;;;;;;;65.87;42.20;;;;;;;1.76;100.00;99696.97;5274218;28;20532;-71
2023/03/09 09:22:42;;;;;;;59.73;39.53;;;;;;;1.63;100.00;99686.31;5274024;28;20024;-72
2023/03/09 09:25:14;;;;;;;62.33;39.93;;;;;;;1.53;100.00;99672.94;5272544;28;20032;-71
2023/03/09 09:27:49;;;;;;;63.53;40.63;;;;;;;1.57;100.00;99687.41;5273200;28;20039;-72
2023/03/09 09:30:20;;;;;;;65.83;42.40;;;;;;;1.49;100.00;99681.72;5261728;28;20032;-71
2023/03/09 09:32:52;;;;;;;61.57;39.80;;;;;;;1.55;100.00;99695.19;5273353;28;20033;-72
2023/03/09 09:35:24;;;;;;;65.27;42.20;;;;;;;1.40;100.00;99693.25;5273936;28;20025;-72
2023/03/09 09:37:57;;;;;;;61.93;41.70;;;;;;;1.36;100.00;99705.44;5273816;28;20028;-72
2023/03/09 09:40:28;;;;;;;68.13;42.40;;;;;;;1.65;100.00;99715.47;5273814;28;20032;-72
2023/03/09 09:43:00;;;;;;;66.37;41.50;;;;;;;1.61;100.00;99696.69;5273879;28;20028;-70
2023/03/09 09:45:36;;;;;;;71.13;45.90;;;;;;;1.68;100.00;99710.19;5273773;28;20040;-72
2023/03/09 09:48:17;;;;;;;65.70;42.77;;;;;;;1.79;100.00;99702.00;5273204;28;20448;-72
2023/03/09 09:51:07;;;;;;;62.93;40.60;;;;;;;1.86;100.00;99708.59;5273935;28;20032;-72
2023/03/09 09:54:00;;;;;;;69.77;46.40;;;;;;;1.81;100.00;99710.53;5271573;28;20455;-76
2023/03/09 09:56:52;;;;;;;59.37;40.40;;;;;;;1.72;100.00;99711.75;5265988;28;20123;-70
2023/03/09 09:59:32;;;;;;;63.27;41.20;;;;;;;1.64;100.00;99714.63;5272183;28;20169;-73
2023/03/09 10:02:09;;;;;;;63.97;41.13;;;;;;;1.79;100.00;99714.91;5273586;28;20056;-70
2023/03/09 10:04:45;;;;;;;72.80;46.00;;;;;;;1.86;100.00;99716.34;5273924;28;20028;-69
2023/03/09 10:07:21;;;;;;;82.30;51.53;;;;;;;1.92;100.00;99716.06;5273913;28;20036;-70
2023/03/09 10:09:57;;;;;;;66.53;45.03;;;;;;;1.83;100.00;99711.31;5273099;28;20067;-69
2023/03/09 10:12:29;;;;;;;63.07;42.13;;;;;;;1.75;100.00;99709.03;5274197;28;20141;-69
2023/03/09 10:15:14;;;;;;;60.13;39.63;;;;;;;1.74;100.00;99707.38;5273960;28;20141;-69
2023/03/09 10:17:51;;;;;;;;;;;;;;;1.90;100.00;99723.03;5273362;28;20052;-70
2023/03/09 10:20:32;;;;;;;59.10;39.67;;;;;;;1.72;100.00;99722.06;5255672;28;19912;-70
2023/03/09 10:23:30;;;;;;;62.50;41.07;;;;;;;1.80;100.00;99721.75;5273249;28;20541;-69
2023/03/09 10:26:35;;;;;;;60.67;40.47;;;;;;;1.83;100.00;99721.63;5275215;28;20558;-70
2023/03/09 10:29:29;;;;;;;61.17;39.58;;;;;;;1.86;100.00;99708.59;5272021;28;20547;-70
2023/03/09 10:32:10;;;;;;;65.03;38.27;;;;;;;1.84;100.00;99697.50;5277261;28;20430;-70
2023/03/09 10:35:11;;;;;;;61.87;39.27;;;;;;;2.04;100.00;99706.97;5277290;28;20044;-70
2023/03/09 10:37:46;;;;;;;61.33;40.43;;;;;;;1.96;100.00;99697.88;5259049;28;20052;-70
2023/03/09 10:40:24;;;;;;;60.30;39.60;;;;;;;2.17;100.00;99699.53;5259060;28;20070;-70
2023/03/09 10:42:59;;;;;;;57.27;39.50;;;;;;;2.26;100.00;99706.06;5277257;28;20028;-70
2023/03/09 10:45:32;;;;;;;57.37;38.73;;;;;;;2.32;100.00;99715.28;5277499;28;20495;-71
2023/03/09 10:48:09;;;;;;;56.80;37.07;;;;;;;2.43;100.00;99709.63;5276367;28;20025;-71
2023/03/09 10:51:03;;;;;;;58.07;37.60;;;;;;;2.50;100.00;99715.38;5277627;28;20024;-71
2023/03/09 10:53:51;;;;;;;57.38;37.60;;;;;;;2.59;100.00;99725.31;5277044;28;20077;-71
2023/03/09 10:56:26;;;;;;;61.27;38.90;;;;;;;2.59;100.00;99721.88;5277255;28;20509;-71
2023/03/09 10:59:07;;;;;;;52.93;35.70;;;;;;;2.39;100.00;99706.34;5258379;28;20086;-69
2023/03/09 11:01:52;;;;;;;54.20;37.07;;;;;;;2.28;100.00;99706.84;5277146;28;20037;-69
2023/03/09 11:04:24;;;;;;;58.50;38.10;;;;;;;2.30;100.00;99710.16;5276415;28;20450;-69
2023/03/09 11:07:03;;;;;;;58.13;38.90;;;;;;;2.37;100.00;99710.75;5258767;28;20031;-70
2023/03/09 11:09:40;;;;;;;57.03;38.90;;;;;;;2.33;100.00;99719.53;5257879;28;20033;-70
2023/03/09 11:12:34;;;;;;;64.53;41.67;;;;;;;2.32;100.00;99715.28;5259268;28;20043;-70
2023/03/09 11:15:15;;;;;;;59.80;37.33;;;;;;;2.31;100.00;99716.19;5258224;28;20484;-70
2023/03/09 11:17:46;;;;;;;59.10;38.60;;;;;;;2.31;100.00;99716.19;5257799;28;20124;-70
2023/03/09 11:20:33;;;;;;;64.23;41.20;;;;;;;2.31;100.00;99713.59;5276843;28;20020;-70
2023/03/09 11:23:13;;;;;;;63.13;38.53;;;;;;;2.39;100.00;99718.44;5276395;28;20050;-70
2023/03/09 11:26:23;;;;;;;60.87;39.83;;;;;;;2.40;100.00;99712.34;5276211;28;20707;-70
2023/03/09 11:29:42;;;;;;;58.20;38.77;;;;;;;2.48;100.00;99704.28;5258232;28;20105;-70
2023/03/09 11:32:13;;;;;;;61.60;37.97;;;;;;;2.53;100.00;99705.72;5240147;28;20127;-70
2023/03/09 11:34:49;;;;;;;62.77;40.63;;;;;;;2.48;100.00;99701.69;5276683;28;20034;-70
2023/03/09 11:37:31;;;;;;;63.37;40.37;;;;;;;2.45;100.00;99700.06;5275748;28;20020;-70
2023/03/09 11:40:16;;;;;;;61.87;38.43;;;;;;;2.37;100.00;99697.84;5275411;28;20020;-70
2023/03/09 11:42:56;;;;;;;61.17;39.90;;;;;;;2.32;100.00;99692.03;5275458;28;20024;-69
2023/03/09 11:45:31;;;;;;;63.57;38.13;;;;;;;2.29;100.00;99703.34;5270565;28;20025;-71
2023/03/09 11:48:21;;;;;;;60.67;40.10;;;;;;;2.42;100.00;99710.56;5259023;28;20026;-70